PWSweather.com
Personal Weather Stations
Station Observations
SELKIRK1
Ontario, Selkirk, ON N0A 1P0

OntarioSelkirk, ON N0A 1P0

Lat: 42.8083652, Lon: -79.94971040000001

Elevation: 583

Station Type: Acurite 5 in 1

http://gavinsurf.com

High Low Average
Temperature 70.4°F21.3°C 58.7°F14.8°C 63.6°F17.6°C
Dew Point 62.7°F17.1°C 52.8°F11.6°C 58.0°F14.4°C
Winds 10.4 mph 16.7 kmh 2.3 mph 3.7 kmh 6.0 mph W9.7 kmh W
Wind Gusts 16.1 mph25.9 kmh 1.2 mph1.9 kmh 8.0 mph12.9 kmh
Humidity 97% 57% 83%
Pressure 31.83 in1077.9 mb 31.83 in1077.9 mb -
Precipitation 0.00 in0.0 mm - -
Hour Temp Dew Point Humidity Winds Wind Gusts Pressure Precip Precip Rate Daily Precip Total
12:00 AM 63.3°F17.4°C 60.9°F16.1°C 92% 4.6 mph NW7.4 kmh NW 5.8 mph9.3 kmh 31.83 in1077.9 mb - 0.00 in0.0 mm 0.00 in0.0 mm
12:10 AM 63.3°F17.4°C 60.9°F16.1°C 92% 5.8 mph NW9.3 kmh NW 9.2 mph14.8 kmh 31.83 in1077.9 mb - 0.00 in0.0 mm 0.00 in0.0 mm
12:15 AM 63.3°F17.4°C 60.9°F16.1°C 92% 4.6 mph WNW7.4 kmh WNW 8.1 mph13.0 kmh 31.83 in1077.9 mb - 0.00 in0.0 mm 0.00 in0.0 mm
12:20 AM 63.2°F17.3°C 60.5°F15.8°C 91% 4.6 mph NW7.4 kmh NW 4.6 mph7.4 kmh 31.83 in1077.9 mb - 0.00 in0.0 mm 0.00 in0.0 mm
12:25 AM 63.2°F17.3°C 60.2°F15.7°C 90% 6.9 mph NW11.1 kmh NW 11.5 mph18.5 kmh 31.83 in1077.9 mb - 0.00 in0.0 mm 0.00 in0.0 mm
12:30 AM 63.3°F17.4°C 60.0°F15.6°C 89% 5.8 mph NW9.3 kmh NW 6.9 mph11.1 kmh 31.83 in1077.9 mb - 0.00 in0.0 mm 0.00 in0.0 mm
12:35 AM 63.5°F17.5°C 59.9°F15.5°C 88% 4.6 mph WSW7.4 kmh WSW 5.8 mph9.3 kmh 31.83 in1077.9 mb - 0.00 in0.0 mm 0.00 in0.0 mm
12:40 AM 63.4°F17.4°C 59.8°F15.4°C 88% 3.5 mph NNW5.6 kmh NNW 5.8 mph9.3 kmh 31.83 in1077.9 mb - 0.00 in0.0 mm 0.00 in0.0 mm
12:45 AM 63.3°F17.4°C 59.7°F15.4°C 88% 3.5 mph WNW5.6 kmh WNW 3.5 mph5.6 kmh 31.83 in1077.9 mb - 0.00 in0.0 mm 0.00 in0.0 mm
12:50 AM 63.0°F17.2°C 59.4°F15.2°C 88% 4.6 mph WNW7.4 kmh WNW 8.1 mph13.0 kmh 31.83 in1077.9 mb - 0.00 in0.0 mm 0.00 in0.0 mm
12:55 AM 62.9°F17.2°C 59.0°F15.0°C 87% 5.8 mph NNE9.3 kmh NNE 6.9 mph11.1 kmh 31.83 in1077.9 mb - 0.00 in0.0 mm 0.00 in0.0 mm
01:00 AM 62.6°F17.0°C 58.3°F14.6°C 86% 6.9 mph NNW11.1 kmh NNW 11.5 mph18.5 kmh 31.83 in1077.9 mb - 0.00 in0.0 mm 0.00 in0.0 mm
01:10 AM 62.4°F16.9°C 58.1°F14.5°C 86% 5.8 mph NW9.3 kmh NW 5.8 mph9.3 kmh 31.83 in1077.9 mb - 0.00 in0.0 mm 0.00 in0.0 mm
01:15 AM 62.2°F16.8°C 57.9°F14.4°C 86% 5.8 mph NW9.3 kmh NW 8.1 mph13.0 kmh 31.83 in1077.9 mb - 0.00 in0.0 mm 0.00 in0.0 mm
01:20 AM 62.1°F16.7°C 58.2°F14.6°C 87% 3.5 mph NW5.6 kmh NW 6.9 mph11.1 kmh 31.83 in1077.9 mb - 0.00 in0.0 mm 0.00 in0.0 mm
01:25 AM 62.1°F16.7°C 58.2°F14.6°C 87% 6.9 mph WNW11.1 kmh WNW 6.9 mph11.1 kmh 31.83 in1077.9 mb - 0.00 in0.0 mm 0.00 in0.0 mm
01:30 AM 62.1°F16.7°C 58.2°F14.6°C 87% 4.6 mph NW7.4 kmh NW 10.4 mph16.7 kmh 31.83 in1077.9 mb - 0.00 in0.0 mm 0.00 in0.0 mm
01:35 AM 62.1°F16.7°C 57.8°F14.3°C 86% 6.9 mph W11.1 kmh W 8.1 mph13.0 kmh 31.83 in1077.9 mb - 0.00 in0.0 mm 0.00 in0.0 mm
01:40 AM 62.1°F16.7°C 57.8°F14.3°C 86% 4.6 mph NW7.4 kmh NW 4.6 mph7.4 kmh 31.83 in1077.9 mb - 0.00 in0.0 mm 0.00 in0.0 mm
01:45 AM 62.1°F16.7°C 57.8°F14.3°C 86% 3.5 mph W5.6 kmh W 5.8 mph9.3 kmh 31.83 in1077.9 mb - 0.00 in0.0 mm 0.00 in0.0 mm
01:50 AM 62.1°F16.7°C 57.8°F14.3°C 86% 4.6 mph NW7.4 kmh NW 9.2 mph14.8 kmh 31.83 in1077.9 mb - 0.00 in0.0 mm 0.00 in0.0 mm
01:55 AM 62.1°F16.7°C 57.8°F14.3°C 86% 4.6 mph NW7.4 kmh NW 9.2 mph14.8 kmh 31.83 in1077.9 mb - 0.00 in0.0 mm 0.00 in0.0 mm
02:00 AM 62.1°F16.7°C 57.8°F14.3°C 86% 3.5 mph WNW5.6 kmh WNW 4.6 mph7.4 kmh 31.83 in1077.9 mb - 0.00 in0.0 mm 0.00 in0.0 mm
02:10 AM 61.9°F16.6°C 58.0°F14.4°C 87% 4.6 mph N7.4 kmh N 8.1 mph13.0 kmh 31.83 in1077.9 mb - 0.00 in0.0 mm 0.00 in0.0 mm
02:15 AM 61.9°F16.6°C 58.0°F14.4°C 87% 4.6 mph SSW7.4 kmh SSW 8.1 mph13.0 kmh 31.83 in1077.9 mb - 0.00 in0.0 mm 0.00 in0.0 mm
02:20 AM 61.9°F16.6°C 58.0°F14.4°C 87% 5.8 mph W9.3 kmh W 6.9 mph11.1 kmh 31.83 in1077.9 mb - 0.00 in0.0 mm 0.00 in0.0 mm
02:25 AM 61.9°F16.6°C 57.6°F14.2°C 86% 4.6 mph E7.4 kmh E 4.6 mph7.4 kmh 31.83 in1077.9 mb - 0.00 in0.0 mm 0.00 in0.0 mm
02:30 AM 61.9°F16.6°C 57.6°F14.2°C 86% 4.6 mph W7.4 kmh W 5.8 mph9.3 kmh 31.83 in1077.9 mb - 0.00 in0.0 mm 0.00 in0.0 mm
02:35 AM 61.9°F16.6°C 57.6°F14.2°C 86% 4.6 mph WNW7.4 kmh WNW 6.9 mph11.1 kmh 31.83 in1077.9 mb - 0.00 in0.0 mm 0.00 in0.0 mm
02:40 AM 61.9°F16.6°C 57.6°F14.2°C 86% 4.6 mph NW7.4 kmh NW 5.8 mph9.3 kmh 31.83 in1077.9 mb - 0.00 in0.0 mm 0.00 in0.0 mm
02:45 AM 61.9°F16.6°C 57.6°F14.2°C 86% 5.8 mph NW9.3 kmh NW 8.1 mph13.0 kmh 31.83 in1077.9 mb - 0.00 in0.0 mm 0.00 in0.0 mm
02:50 AM 61.9°F16.6°C 57.6°F14.2°C 86% 3.5 mph SW5.6 kmh SW 3.5 mph5.6 kmh 31.83 in1077.9 mb - 0.00 in0.0 mm 0.00 in0.0 mm
02:55 AM 61.7°F16.5°C 57.8°F14.3°C 87% 4.6 mph NW7.4 kmh NW 5.8 mph9.3 kmh 31.83 in1077.9 mb - 0.00 in0.0 mm 0.00 in0.0 mm
03:00 AM 61.7°F16.5°C 57.8°F14.3°C 87% 4.6 mph NNW7.4 kmh NNW 4.6 mph7.4 kmh 31.83 in1077.9 mb - 0.00 in0.0 mm 0.00 in0.0 mm
03:10 AM 61.7°F16.5°C 57.8°F14.3°C 87% 4.6 mph N7.4 kmh N 3.5 mph5.6 kmh 31.83 in1077.9 mb - 0.00 in0.0 mm 0.00 in0.0 mm
03:15 AM 61.5°F16.4°C 57.6°F14.2°C 87% 6.9 mph NW11.1 kmh NW 8.1 mph13.0 kmh 31.83 in1077.9 mb - 0.00 in0.0 mm 0.00 in0.0 mm
03:20 AM 61.5°F16.4°C 57.6°F14.2°C 87% 4.6 mph NNW7.4 kmh NNW 5.8 mph9.3 kmh 31.83 in1077.9 mb - 0.00 in0.0 mm 0.00 in0.0 mm
03:25 AM 61.5°F16.4°C 57.6°F14.2°C 87% 5.8 mph N9.3 kmh N 6.9 mph11.1 kmh 31.83 in1077.9 mb - 0.00 in0.0 mm 0.00 in0.0 mm
03:30 AM 61.5°F16.4°C 57.6°F14.2°C 87% 5.8 mph WSW9.3 kmh WSW 10.4 mph16.7 kmh 31.83 in1077.9 mb - 0.00 in0.0 mm 0.00 in0.0 mm
03:35 AM 61.5°F16.4°C 57.6°F14.2°C 87% 5.8 mph NW9.3 kmh NW 9.2 mph14.8 kmh 31.83 in1077.9 mb - 0.00 in0.0 mm 0.00 in0.0 mm
03:40 AM 61.5°F16.4°C 57.6°F14.2°C 87% 6.9 mph NNE11.1 kmh NNE 10.4 mph16.7 kmh 31.83 in1077.9 mb - 0.00 in0.0 mm 0.00 in0.0 mm
03:45 AM 61.5°F16.4°C 57.6°F14.2°C 87% 6.9 mph NW11.1 kmh NW 6.9 mph11.1 kmh 31.83 in1077.9 mb - 0.00 in0.0 mm 0.00 in0.0 mm
03:50 AM 61.5°F16.4°C 57.6°F14.2°C 87% 4.6 mph NW7.4 kmh NW 8.1 mph13.0 kmh 31.83 in1077.9 mb - 0.00 in0.0 mm 0.00 in0.0 mm
03:55 AM 61.5°F16.4°C 57.6°F14.2°C 87% 5.8 mph NW9.3 kmh NW 6.9 mph11.1 kmh 31.83 in1077.9 mb - 0.00 in0.0 mm 0.00 in0.0 mm
04:00 AM 61.4°F16.3°C 57.8°F14.3°C 88% 6.9 mph NW11.1 kmh NW 8.1 mph13.0 kmh 31.83 in1077.9 mb - 0.00 in0.0 mm 0.00 in0.0 mm
04:10 AM 61.2°F16.2°C 57.6°F14.2°C 88% 5.8 mph WSW9.3 kmh WSW 5.8 mph9.3 kmh 31.83 in1077.9 mb - 0.00 in0.0 mm 0.00 in0.0 mm
04:15 AM 61.2°F16.2°C 57.6°F14.2°C 88% 5.8 mph WNW9.3 kmh WNW 5.8 mph9.3 kmh 31.83 in1077.9 mb - 0.00 in0.0 mm 0.00 in0.0 mm
04:20 AM 61.2°F16.2°C 57.6°F14.2°C 88% 4.6 mph NW7.4 kmh NW 11.5 mph18.5 kmh 31.83 in1077.9 mb - 0.00 in0.0 mm 0.00 in0.0 mm
04:25 AM 61.2°F16.2°C 57.6°F14.2°C 88% 5.8 mph NNW9.3 kmh NNW 10.4 mph16.7 kmh 31.83 in1077.9 mb - 0.00 in0.0 mm 0.00 in0.0 mm
04:30 AM 61.2°F16.2°C 57.6°F14.2°C 88% 5.8 mph NNW9.3 kmh NNW 8.1 mph13.0 kmh 31.83 in1077.9 mb - 0.00 in0.0 mm 0.00 in0.0 mm
04:35 AM 61.2°F16.2°C 57.6°F14.2°C 88% 4.6 mph WSW7.4 kmh WSW 5.8 mph9.3 kmh 31.83 in1077.9 mb - 0.00 in0.0 mm 0.00 in0.0 mm
04:40 AM 61.2°F16.2°C 57.6°F14.2°C 88% 4.6 mph NW7.4 kmh NW 8.1 mph13.0 kmh 31.83 in1077.9 mb - 0.00 in0.0 mm 0.00 in0.0 mm
04:45 AM 61.2°F16.2°C 57.6°F14.2°C 88% 4.6 mph NW7.4 kmh NW 5.8 mph9.3 kmh 31.83 in1077.9 mb - 0.00 in0.0 mm 0.00 in0.0 mm
04:50 AM 61.0°F16.1°C 57.7°F14.3°C 89% 4.6 mph W7.4 kmh W 5.8 mph9.3 kmh 31.83 in1077.9 mb - 0.00 in0.0 mm 0.00 in0.0 mm
04:55 AM 61.0°F16.1°C 57.7°F14.3°C 89% 3.5 mph NW5.6 kmh NW 5.8 mph9.3 kmh 31.83 in1077.9 mb - 0.00 in0.0 mm 0.00 in0.0 mm
05:00 AM 61.0°F16.1°C 57.7°F14.3°C 89% 3.5 mph NNW5.6 kmh NNW 5.8 mph9.3 kmh 31.83 in1077.9 mb - 0.00 in0.0 mm 0.00 in0.0 mm
05:10 AM 61.2°F16.2°C 57.9°F14.4°C 89% 4.6 mph WNW7.4 kmh WNW 5.8 mph9.3 kmh 31.83 in1077.9 mb - 0.00 in0.0 mm 0.00 in0.0 mm
05:15 AM 61.2°F16.2°C 57.9°F14.4°C 89% 4.6 mph SW7.4 kmh SW 5.8 mph9.3 kmh 31.83 in1077.9 mb - 0.00 in0.0 mm 0.00 in0.0 mm
05:20 AM 61.2°F16.2°C 57.9°F14.4°C 89% 3.5 mph WNW5.6 kmh WNW 5.8 mph9.3 kmh 31.83 in1077.9 mb - 0.00 in0.0 mm 0.00 in0.0 mm
05:25 AM 61.4°F16.3°C 58.1°F14.5°C 89% 4.6 mph NNW7.4 kmh NNW 6.9 mph11.1 kmh 31.83 in1077.9 mb - 0.00 in0.0 mm 0.00 in0.0 mm
05:30 AM 61.4°F16.3°C 58.1°F14.5°C 89% 5.8 mph NW9.3 kmh NW 8.1 mph13.0 kmh 31.83 in1077.9 mb - 0.00 in0.0 mm 0.00 in0.0 mm
05:35 AM 61.4°F16.3°C 57.8°F14.3°C 88% 5.8 mph NW9.3 kmh NW 5.8 mph9.3 kmh 31.83 in1077.9 mb - 0.00 in0.0 mm 0.00 in0.0 mm
05:40 AM 61.4°F16.3°C 57.8°F14.3°C 88% 3.5 mph NNW5.6 kmh NNW 5.8 mph9.3 kmh 31.83 in1077.9 mb - 0.00 in0.0 mm 0.00 in0.0 mm
05:45 AM 61.4°F16.3°C 57.8°F14.3°C 88% 4.6 mph NNW7.4 kmh NNW 5.8 mph9.3 kmh 31.83 in1077.9 mb - 0.00 in0.0 mm 0.00 in0.0 mm
05:50 AM 61.2°F16.2°C 57.9°F14.4°C 89% 4.6 mph NW7.4 kmh NW 8.1 mph13.0 kmh 31.83 in1077.9 mb - 0.00 in0.0 mm 0.00 in0.0 mm
05:55 AM 61.2°F16.2°C 57.9°F14.4°C 89% 4.6 mph N7.4 kmh N 9.2 mph14.8 kmh 31.83 in1077.9 mb - 0.00 in0.0 mm 0.00 in0.0 mm
06:00 AM 61.2°F16.2°C 57.9°F14.4°C 89% 6.9 mph NNW11.1 kmh NNW 9.2 mph14.8 kmh 31.83 in1077.9 mb - 0.00 in0.0 mm 0.00 in0.0 mm
06:10 AM 61.0°F16.1°C 58.0°F14.4°C 90% 6.9 mph N11.1 kmh N 6.9 mph11.1 kmh 31.83 in1077.9 mb - 0.00 in0.0 mm 0.00 in0.0 mm
06:15 AM 60.8°F16.0°C 58.1°F14.5°C 91% 4.6 mph NW7.4 kmh NW 5.8 mph9.3 kmh 31.83 in1077.9 mb - 0.00 in0.0 mm 0.00 in0.0 mm
06:20 AM 60.8°F16.0°C 58.1°F14.5°C 91% 4.6 mph NW7.4 kmh NW 4.6 mph7.4 kmh 31.83 in1077.9 mb - 0.00 in0.0 mm 0.00 in0.0 mm
06:25 AM 61.0°F16.1°C 58.3°F14.6°C 91% 3.5 mph NW5.6 kmh NW 9.2 mph14.8 kmh 31.83 in1077.9 mb - 0.00 in0.0 mm 0.00 in0.0 mm
06:30 AM 60.7°F15.9°C 58.6°F14.8°C 93% 6.9 mph N11.1 kmh N 8.1 mph13.0 kmh 31.83 in1077.9 mb - 0.00 in0.0 mm 0.00 in0.0 mm
06:35 AM 60.2°F15.7°C 59.0°F15.0°C 96% 4.6 mph N7.4 kmh N 5.8 mph9.3 kmh 31.83 in1077.9 mb - 0.00 in0.0 mm 0.00 in0.0 mm
06:40 AM 59.7°F15.4°C 58.9°F14.9°C 97% 4.6 mph WSW7.4 kmh WSW 5.8 mph9.3 kmh 31.83 in1077.9 mb - 0.00 in0.0 mm 0.00 in0.0 mm
06:45 AM 59.6°F15.3°C 58.7°F14.8°C 97% 4.6 mph NNW7.4 kmh NNW 5.8 mph9.3 kmh 31.83 in1077.9 mb - 0.00 in0.0 mm 0.00 in0.0 mm
06:50 AM 60.2°F15.7°C 58.8°F14.9°C 95% 4.6 mph W7.4 kmh W 5.8 mph9.3 kmh 31.83 in1077.9 mb - 0.00 in0.0 mm 0.00 in0.0 mm
06:55 AM 60.5°F15.8°C 58.7°F14.8°C 94% 4.6 mph WNW7.4 kmh WNW 5.8 mph9.3 kmh 31.83 in1077.9 mb - 0.00 in0.0 mm 0.00 in0.0 mm
07:00 AM 61.4°F16.3°C 58.7°F14.8°C 91% 5.8 mph NW9.3 kmh NW 6.9 mph11.1 kmh 31.83 in1077.9 mb - 0.00 in0.0 mm 0.00 in0.0 mm
07:10 AM 62.3°F16.8°C 59.1°F15.1°C 89% 6.9 mph NW11.1 kmh NW 12.7 mph20.4 kmh 31.83 in1077.9 mb - 0.00 in0.0 mm 0.00 in0.0 mm
07:15 AM 63.2°F17.3°C 58.9°F14.9°C 86% 5.8 mph N9.3 kmh N 10.4 mph16.7 kmh 31.83 in1077.9 mb - 0.00 in0.0 mm 0.00 in0.0 mm
07:20 AM 62.6°F17.0°C 58.7°F14.8°C 87% 6.9 mph NW11.1 kmh NW 9.2 mph14.8 kmh 31.83 in1077.9 mb - 0.00 in0.0 mm 0.00 in0.0 mm
07:25 AM 62.1°F16.7°C 59.4°F15.2°C 91% 3.5 mph W5.6 kmh W 5.8 mph9.3 kmh 31.83 in1077.9 mb - 0.00 in0.0 mm 0.00 in0.0 mm
07:30 AM 60.8°F16.0°C 59.6°F15.3°C 96% 4.6 mph NW7.4 kmh NW 5.8 mph9.3 kmh 31.83 in1077.9 mb - 0.00 in0.0 mm 0.00 in0.0 mm
07:35 AM 60.6°F15.9°C 59.4°F15.2°C 96% 4.6 mph N7.4 kmh N 5.8 mph9.3 kmh 31.83 in1077.9 mb - 0.00 in0.0 mm 0.00 in0.0 mm
07:40 AM 60.8°F16.0°C 59.3°F15.2°C 95% 6.9 mph NW11.1 kmh NW 9.2 mph14.8 kmh 31.83 in1077.9 mb - 0.00 in0.0 mm 0.00 in0.0 mm
07:45 AM 60.6°F15.9°C 58.8°F14.9°C 94% 5.8 mph NW9.3 kmh NW 9.2 mph14.8 kmh 31.83 in1077.9 mb - 0.00 in0.0 mm 0.00 in0.0 mm
07:50 AM 60.6°F15.9°C 58.8°F14.9°C 94% 5.8 mph NNW9.3 kmh NNW 6.9 mph11.1 kmh 31.83 in1077.9 mb - 0.00 in0.0 mm 0.00 in0.0 mm
07:55 AM 60.0°F15.6°C 58.0°F14.4°C 93% 6.9 mph NW11.1 kmh NW 8.1 mph13.0 kmh 31.83 in1077.9 mb - 0.00 in0.0 mm 0.00 in0.0 mm
08:00 AM 59.9°F15.5°C 57.6°F14.2°C 92% 6.9 mph N11.1 kmh N 6.9 mph11.1 kmh 31.83 in1077.9 mb - 0.00 in0.0 mm 0.00 in0.0 mm
08:10 AM 62.6°F17.0°C 59.3°F15.2°C 89% 4.6 mph WSW7.4 kmh WSW 6.9 mph11.1 kmh 31.83 in1077.9 mb - 0.00 in0.0 mm 0.00 in0.0 mm
08:15 AM 62.9°F17.2°C 59.3°F15.2°C 88% 3.5 mph WNW5.6 kmh WNW 5.8 mph9.3 kmh 31.83 in1077.9 mb - 0.00 in0.0 mm 0.00 in0.0 mm
08:20 AM 63.6°F17.6°C 59.3°F15.2°C 86% 4.6 mph NNW7.4 kmh NNW 3.5 mph5.6 kmh 31.83 in1077.9 mb - 0.00 in0.0 mm 0.00 in0.0 mm
08:25 AM 64.1°F17.8°C 59.2°F15.1°C 84% 5.8 mph NNW9.3 kmh NNW 9.2 mph14.8 kmh 31.83 in1077.9 mb - 0.00 in0.0 mm 0.00 in0.0 mm
08:30 AM 64.1°F17.8°C 59.2°F15.1°C 84% 8.1 mph N13.0 kmh N 9.2 mph14.8 kmh 31.83 in1077.9 mb - 0.00 in0.0 mm 0.00 in0.0 mm
08:35 AM 63.2°F17.3°C 58.6°F14.8°C 85% 10.4 mph NW16.7 kmh NW 15.0 mph24.1 kmh 31.83 in1077.9 mb - 0.00 in0.0 mm 0.00 in0.0 mm
08:40 AM 62.6°F17.0°C 58.3°F14.6°C 86% 9.2 mph N14.8 kmh N 10.4 mph16.7 kmh 31.83 in1077.9 mb - 0.00 in0.0 mm 0.00 in0.0 mm
08:45 AM 62.3°F16.8°C 58.0°F14.4°C 86% 6.9 mph NNW11.1 kmh NNW 6.9 mph11.1 kmh 31.83 in1077.9 mb - 0.00 in0.0 mm 0.00 in0.0 mm
08:50 AM 63.6°F17.6°C 58.7°F14.8°C 84% 8.1 mph WNW13.0 kmh WNW 10.4 mph16.7 kmh 31.83 in1077.9 mb - 0.00 in0.0 mm 0.00 in0.0 mm
08:55 AM 64.3°F17.9°C 59.0°F15.0°C 83% 6.9 mph NW11.1 kmh NW 5.8 mph9.3 kmh 31.83 in1077.9 mb - 0.00 in0.0 mm 0.00 in0.0 mm
09:00 AM 65.3°F18.5°C 59.3°F15.2°C 81% 10.4 mph NNW16.7 kmh NNW 9.2 mph14.8 kmh 31.83 in1077.9 mb - 0.00 in0.0 mm 0.00 in0.0 mm
09:10 AM 65.3°F18.5°C 59.3°F15.2°C 81% 8.1 mph NNE13.0 kmh NNE 6.9 mph11.1 kmh 31.83 in1077.9 mb - 0.00 in0.0 mm 0.00 in0.0 mm
09:15 AM 65.8°F18.8°C 60.2°F15.7°C 82% 8.1 mph WNW13.0 kmh WNW 11.5 mph18.5 kmh 31.83 in1077.9 mb - 0.00 in0.0 mm 0.00 in0.0 mm
09:20 AM 66.2°F19.0°C 59.8°F15.4°C 80% 5.8 mph NW9.3 kmh NW 5.8 mph9.3 kmh 31.83 in1077.9 mb - 0.00 in0.0 mm 0.00 in0.0 mm
09:25 AM 66.0°F18.9°C 59.7°F15.4°C 80% 6.9 mph NW11.1 kmh NW 6.9 mph11.1 kmh 31.83 in1077.9 mb - 0.00 in0.0 mm 0.00 in0.0 mm
09:30 AM 66.8°F19.3°C 59.3°F15.2°C 77% 9.2 mph WNW14.8 kmh WNW 9.2 mph14.8 kmh 31.83 in1077.9 mb - 0.00 in0.0 mm 0.00 in0.0 mm
09:35 AM 65.9°F18.8°C 58.4°F14.7°C 77% 10.4 mph NNW16.7 kmh NNW 16.1 mph25.9 kmh 31.83 in1077.9 mb - 0.00 in0.0 mm 0.00 in0.0 mm
09:40 AM 65.7°F18.7°C 58.6°F14.8°C 78% 8.1 mph W13.0 kmh W 8.1 mph13.0 kmh 31.83 in1077.9 mb - 0.00 in0.0 mm 0.00 in0.0 mm
09:45 AM 66.4°F19.1°C 59.0°F15.0°C 77% 6.9 mph NW11.1 kmh NW 8.1 mph13.0 kmh 31.83 in1077.9 mb - 0.00 in0.0 mm 0.00 in0.0 mm
09:50 AM 68.0°F20.0°C 60.1°F15.6°C 76% 6.9 mph NW11.1 kmh NW 6.9 mph11.1 kmh 31.83 in1077.9 mb - 0.00 in0.0 mm 0.00 in0.0 mm
09:55 AM 67.6°F19.8°C 59.4°F15.2°C 75% 8.1 mph S13.0 kmh S 10.4 mph16.7 kmh 31.83 in1077.9 mb - 0.00 in0.0 mm 0.00 in0.0 mm
10:00 AM 67.6°F19.8°C 59.0°F15.0°C 74% 8.1 mph W13.0 kmh W 9.2 mph14.8 kmh 31.83 in1077.9 mb - 0.00 in0.0 mm 0.00 in0.0 mm
10:10 AM 66.5°F19.2°C 59.4°F15.2°C 78% 3.5 mph W5.6 kmh W 4.6 mph7.4 kmh 31.83 in1077.9 mb - 0.00 in0.0 mm 0.00 in0.0 mm
10:15 AM 67.1°F19.5°C 58.9°F14.9°C 75% 6.9 mph N11.1 kmh N 9.2 mph14.8 kmh 31.83 in1077.9 mb - 0.00 in0.0 mm 0.00 in0.0 mm
10:20 AM 67.9°F19.9°C 60.0°F15.6°C 76% 5.8 mph WNW9.3 kmh WNW 9.2 mph14.8 kmh 31.83 in1077.9 mb - 0.00 in0.0 mm 0.00 in0.0 mm
10:25 AM 67.7°F19.8°C 59.5°F15.3°C 75% 8.1 mph WNW13.0 kmh WNW 10.4 mph16.7 kmh 31.83 in1077.9 mb - 0.00 in0.0 mm 0.00 in0.0 mm
10:30 AM 66.6°F19.2°C 59.5°F15.3°C 78% 9.2 mph WNW14.8 kmh WNW 11.5 mph18.5 kmh 31.83 in1077.9 mb - 0.00 in0.0 mm 0.00 in0.0 mm
10:35 AM 66.2°F19.0°C 59.5°F15.3°C 79% 4.6 mph WSW7.4 kmh WSW 10.4 mph16.7 kmh 31.83 in1077.9 mb - 0.00 in0.0 mm 0.00 in0.0 mm
10:40 AM 68.4°F20.2°C 60.5°F15.8°C 76% 5.8 mph NW9.3 kmh NW 6.9 mph11.1 kmh 31.83 in1077.9 mb - 0.00 in0.0 mm 0.00 in0.0 mm
10:45 AM 68.1°F20.1°C 60.2°F15.7°C 76% 5.8 mph SSW9.3 kmh SSW 11.5 mph18.5 kmh 31.83 in1077.9 mb - 0.00 in0.0 mm 0.00 in0.0 mm
10:50 AM 67.9°F19.9°C 60.4°F15.8°C 77% 6.9 mph SW11.1 kmh SW 6.9 mph11.1 kmh 31.83 in1077.9 mb - 0.00 in0.0 mm 0.00 in0.0 mm
10:55 AM 67.7°F19.8°C 61.3°F16.3°C 80% 5.8 mph SW9.3 kmh SW 9.2 mph14.8 kmh 31.83 in1077.9 mb - 0.00 in0.0 mm 0.00 in0.0 mm
11:00 AM 66.1°F18.9°C 61.1°F16.2°C 84% 5.8 mph WSW9.3 kmh WSW 11.5 mph18.5 kmh 31.83 in1077.9 mb - 0.00 in0.0 mm 0.00 in0.0 mm
11:10 AM 66.6°F19.2°C 61.3°F16.3°C 83% 5.8 mph WSW9.3 kmh WSW 8.1 mph13.0 kmh 31.83 in1077.9 mb - 0.00 in0.0 mm 0.00 in0.0 mm
11:15 AM 68.5°F20.3°C 62.0°F16.7°C 80% 6.9 mph SW11.1 kmh SW 9.2 mph14.8 kmh 31.83 in1077.9 mb - 0.00 in0.0 mm 0.00 in0.0 mm
11:20 AM 69.5°F20.8°C 62.7°F17.1°C 79% 5.8 mph SW9.3 kmh SW 10.4 mph16.7 kmh 31.83 in1077.9 mb - 0.00 in0.0 mm 0.00 in0.0 mm
11:25 AM 66.5°F19.2°C 60.4°F15.8°C 81% 6.9 mph WSW11.1 kmh WSW 12.7 mph20.4 kmh 31.83 in1077.9 mb - 0.00 in0.0 mm 0.00 in0.0 mm
11:30 AM 65.8°F18.8°C 60.5°F15.8°C 83% 4.6 mph SW7.4 kmh SW 10.4 mph16.7 kmh 31.83 in1077.9 mb - 0.00 in0.0 mm 0.00 in0.0 mm
11:35 AM 68.4°F20.2°C 62.4°F16.9°C 81% 6.9 mph WSW11.1 kmh WSW 15.0 mph24.1 kmh 31.83 in1077.9 mb - 0.00 in0.0 mm 0.00 in0.0 mm
11:40 AM 68.1°F20.1°C 61.7°F16.5°C 80% 6.9 mph SW11.1 kmh SW 6.9 mph11.1 kmh 31.83 in1077.9 mb - 0.00 in0.0 mm 0.00 in0.0 mm
11:45 AM 66.2°F19.0°C 60.9°F16.1°C 83% 3.5 mph WSW5.6 kmh WSW 4.6 mph7.4 kmh 31.83 in1077.9 mb - 0.00 in0.0 mm 0.00 in0.0 mm
11:50 AM 66.4°F19.1°C 61.1°F16.2°C 83% 3.5 mph WSW5.6 kmh WSW 3.5 mph5.6 kmh 31.83 in1077.9 mb - 0.00 in0.0 mm 0.00 in0.0 mm
11:55 AM 67.1°F19.5°C 60.7°F15.9°C 80% 6.9 mph SW11.1 kmh SW 10.4 mph16.7 kmh 31.83 in1077.9 mb - 0.00 in0.0 mm 0.00 in0.0 mm
12:00 PM 67.6°F19.8°C 60.5°F15.8°C 78% 6.9 mph SW11.1 kmh SW 10.4 mph16.7 kmh 31.83 in1077.9 mb - 0.00 in0.0 mm 0.00 in0.0 mm
12:10 PM 66.7°F19.3°C 60.3°F15.7°C 80% 4.6 mph SW7.4 kmh SW 6.9 mph11.1 kmh 31.83 in1077.9 mb - 0.00 in0.0 mm 0.00 in0.0 mm
12:15 PM 65.7°F18.7°C 60.0°F15.6°C 82% 4.6 mph SSW7.4 kmh SSW 5.8 mph9.3 kmh 31.83 in1077.9 mb - 0.00 in0.0 mm 0.00 in0.0 mm
12:20 PM 65.0°F18.3°C 59.7°F15.4°C 83% 3.5 mph N5.6 kmh N 6.9 mph11.1 kmh 31.83 in1077.9 mb - 0.00 in0.0 mm 0.00 in0.0 mm
12:25 PM 65.2°F18.4°C 59.2°F15.1°C 81% 5.8 mph WNW9.3 kmh WNW 8.1 mph13.0 kmh 31.83 in1077.9 mb - 0.00 in0.0 mm 0.00 in0.0 mm
12:30 PM 65.1°F18.4°C 58.1°F14.5°C 78% 6.9 mph NNW11.1 kmh NNW 13.8 mph22.2 kmh 31.83 in1077.9 mb - 0.00 in0.0 mm 0.00 in0.0 mm
12:35 PM 65.2°F18.4°C 58.2°F14.6°C 78% 6.9 mph NW11.1 kmh NW 10.4 mph16.7 kmh 31.83 in1077.9 mb - 0.00 in0.0 mm 0.00 in0.0 mm
12:40 PM 66.1°F18.9°C 59.0°F15.0°C 78% 6.9 mph WNW11.1 kmh WNW 10.4 mph16.7 kmh 31.83 in1077.9 mb - 0.00 in0.0 mm 0.00 in0.0 mm
12:45 PM 67.7°F19.8°C 59.5°F15.3°C 75% 5.8 mph WSW9.3 kmh WSW 9.2 mph14.8 kmh 31.83 in1077.9 mb - 0.00 in0.0 mm 0.00 in0.0 mm
12:50 PM 67.1°F19.5°C 59.3°F15.2°C 76% 5.8 mph SE9.3 kmh SE 10.4 mph16.7 kmh 31.83 in1077.9 mb - 0.00 in0.0 mm 0.00 in0.0 mm
12:55 PM 66.7°F19.3°C 59.3°F15.2°C 77% 5.8 mph NW9.3 kmh NW 6.9 mph11.1 kmh 31.83 in1077.9 mb - 0.00 in0.0 mm 0.00 in0.0 mm
01:00 PM 65.8°F18.8°C 58.4°F14.7°C 77% 6.9 mph W11.1 kmh W 9.2 mph14.8 kmh 31.83 in1077.9 mb - 0.00 in0.0 mm 0.00 in0.0 mm
01:10 PM 66.6°F19.2°C 58.8°F14.9°C 76% 4.6 mph W7.4 kmh W 5.8 mph9.3 kmh 31.83 in1077.9 mb - 0.00 in0.0 mm 0.00 in0.0 mm
01:15 PM 66.6°F19.2°C 58.1°F14.5°C 74% 8.1 mph NNW13.0 kmh NNW 9.2 mph14.8 kmh 31.83 in1077.9 mb - 0.00 in0.0 mm 0.00 in0.0 mm
01:20 PM 66.2°F19.0°C 58.0°F14.4°C 75% 6.9 mph NW11.1 kmh NW 10.4 mph16.7 kmh 31.83 in1077.9 mb - 0.00 in0.0 mm 0.00 in0.0 mm
01:25 PM 65.9°F18.8°C 58.1°F14.5°C 76% 5.8 mph WNW9.3 kmh WNW 6.9 mph11.1 kmh 31.83 in1077.9 mb - 0.00 in0.0 mm 0.00 in0.0 mm
01:30 PM 66.0°F18.9°C 58.9°F14.9°C 78% 5.8 mph WNW9.3 kmh WNW 8.1 mph13.0 kmh 31.83 in1077.9 mb - 0.00 in0.0 mm 0.00 in0.0 mm
01:35 PM 65.8°F18.8°C 58.0°F14.4°C 76% 5.8 mph W9.3 kmh W 8.1 mph13.0 kmh 31.83 in1077.9 mb - 0.00 in0.0 mm 0.00 in0.0 mm
01:40 PM 65.9°F18.8°C 58.1°F14.5°C 76% 6.9 mph WNW11.1 kmh WNW 11.5 mph18.5 kmh 31.83 in1077.9 mb - 0.00 in0.0 mm 0.00 in0.0 mm
01:45 PM 65.5°F18.6°C 57.4°F14.1°C 75% 8.1 mph WNW13.0 kmh WNW 9.2 mph14.8 kmh 31.83 in1077.9 mb - 0.00 in0.0 mm 0.00 in0.0 mm
01:50 PM 65.1°F18.4°C 58.4°F14.7°C 79% 3.5 mph NW5.6 kmh NW 4.6 mph7.4 kmh 31.83 in1077.9 mb - 0.00 in0.0 mm 0.00 in0.0 mm
01:55 PM 65.1°F18.4°C 58.8°F14.9°C 80% 4.6 mph NNW7.4 kmh NNW 8.1 mph13.0 kmh 31.83 in1077.9 mb - 0.00 in0.0 mm 0.00 in0.0 mm
02:00 PM 65.0°F18.3°C 58.4°F14.7°C 79% 4.6 mph W7.4 kmh W 5.8 mph9.3 kmh 31.83 in1077.9 mb - 0.00 in0.0 mm 0.00 in0.0 mm
02:10 PM 65.5°F18.6°C 59.5°F15.3°C 81% 3.5 mph W5.6 kmh W 6.9 mph11.1 kmh 31.83 in1077.9 mb - 0.00 in0.0 mm 0.00 in0.0 mm
02:15 PM 64.9°F18.3°C 58.6°F14.8°C 80% 4.6 mph NNW7.4 kmh NNW 5.8 mph9.3 kmh 31.83 in1077.9 mb - 0.00 in0.0 mm 0.00 in0.0 mm
02:20 PM 65.1°F18.4°C 58.8°F14.9°C 80% 5.8 mph NNW9.3 kmh NNW 13.8 mph22.2 kmh 31.83 in1077.9 mb - 0.00 in0.0 mm 0.00 in0.0 mm
02:25 PM 65.1°F18.4°C 58.4°F14.7°C 79% 8.1 mph NNW13.0 kmh NNW 8.1 mph13.0 kmh 31.83 in1077.9 mb - 0.00 in0.0 mm 0.00 in0.0 mm
02:30 PM 65.6°F18.7°C 59.0°F15.0°C 79% 5.8 mph N9.3 kmh N 6.9 mph11.1 kmh 31.83 in1077.9 mb - 0.00 in0.0 mm 0.00 in0.0 mm
02:35 PM 66.6°F19.2°C 59.5°F15.3°C 78% 3.5 mph NNE5.6 kmh NNE 6.9 mph11.1 kmh 31.83 in1077.9 mb - 0.00 in0.0 mm 0.00 in0.0 mm
02:40 PM 67.0°F19.4°C 58.5°F14.7°C 74% 8.1 mph NNW13.0 kmh NNW 9.2 mph14.8 kmh 31.83 in1077.9 mb - 0.00 in0.0 mm 0.00 in0.0 mm
02:45 PM 66.7°F19.3°C 58.2°F14.6°C 74% 8.1 mph NNW13.0 kmh NNW 11.5 mph18.5 kmh 31.83 in1077.9 mb - 0.00 in0.0 mm 0.00 in0.0 mm
02:50 PM 68.4°F20.2°C 58.6°F14.8°C 71% 9.2 mph WNW14.8 kmh WNW 11.5 mph18.5 kmh 31.83 in1077.9 mb - 0.00 in0.0 mm 0.00 in0.0 mm
02:55 PM 68.9°F20.5°C 58.3°F14.6°C 69% 9.2 mph NW14.8 kmh NW 10.4 mph16.7 kmh 31.83 in1077.9 mb - 0.00 in0.0 mm 0.00 in0.0 mm
03:00 PM 68.3°F20.2°C 57.7°F14.3°C 69% 6.9 mph W11.1 kmh W 9.2 mph14.8 kmh 31.83 in1077.9 mb - 0.00 in0.0 mm 0.00 in0.0 mm
03:10 PM 68.8°F20.4°C 57.4°F14.1°C 67% 10.4 mph NW16.7 kmh NW 15.0 mph24.1 kmh 31.83 in1077.9 mb - 0.00 in0.0 mm 0.00 in0.0 mm
03:15 PM 70.1°F21.2°C 57.3°F14.1°C 64% 8.1 mph W13.0 kmh W 12.7 mph20.4 kmh 31.83 in1077.9 mb - 0.00 in0.0 mm 0.00 in0.0 mm
03:20 PM 69.5°F20.8°C 55.9°F13.3°C 62% 9.2 mph NNW14.8 kmh NNW 9.2 mph14.8 kmh 31.83 in1077.9 mb - 0.00 in0.0 mm 0.00 in0.0 mm
03:25 PM 69.3°F20.7°C 56.1°F13.4°C 63% 8.1 mph NW13.0 kmh NW 8.1 mph13.0 kmh 31.83 in1077.9 mb - 0.00 in0.0 mm 0.00 in0.0 mm
03:30 PM 68.8°F20.4°C 55.3°F12.9°C 62% 9.2 mph NW14.8 kmh NW 10.4 mph16.7 kmh 31.83 in1077.9 mb - 0.00 in0.0 mm 0.00 in0.0 mm
03:35 PM 67.8°F19.9°C 55.1°F12.8°C 64% 6.9 mph NW11.1 kmh NW 6.9 mph11.1 kmh 31.83 in1077.9 mb - 0.00 in0.0 mm 0.00 in0.0 mm
03:40 PM 68.0°F20.0°C 55.8°F13.2°C 65% 8.1 mph NW13.0 kmh NW 9.2 mph14.8 kmh 31.83 in1077.9 mb - 0.00 in0.0 mm 0.00 in0.0 mm
03:45 PM 67.9°F19.9°C 55.7°F13.2°C 65% 5.8 mph NW9.3 kmh NW 8.1 mph13.0 kmh 31.83 in1077.9 mb - 0.00 in0.0 mm 0.00 in0.0 mm
03:50 PM 69.1°F20.6°C 56.8°F13.8°C 65% 4.6 mph NNW7.4 kmh NNW 6.9 mph11.1 kmh 31.83 in1077.9 mb - 0.00 in0.0 mm 0.00 in0.0 mm
03:55 PM 70.4°F21.3°C 56.3°F13.5°C 61% 8.1 mph WNW13.0 kmh WNW 11.5 mph18.5 kmh 31.83 in1077.9 mb - 0.00 in0.0 mm 0.00 in0.0 mm
04:00 PM 70.2°F21.2°C 55.6°F13.1°C 60% 6.9 mph NW11.1 kmh NW 9.2 mph14.8 kmh 31.83 in1077.9 mb - 0.00 in0.0 mm 0.00 in0.0 mm
04:10 PM 69.1°F20.6°C 55.1°F12.8°C 61% 5.8 mph NNW9.3 kmh NNW 6.9 mph11.1 kmh 31.83 in1077.9 mb - 0.00 in0.0 mm 0.00 in0.0 mm
04:15 PM 68.0°F20.0°C 53.6°F12.0°C 60% 10.4 mph NW16.7 kmh NW 12.7 mph20.4 kmh 31.83 in1077.9 mb - 0.00 in0.0 mm 0.00 in0.0 mm
04:20 PM 68.4°F20.2°C 54.0°F12.2°C 60% 5.8 mph NW9.3 kmh NW 8.1 mph13.0 kmh 31.83 in1077.9 mb - 0.00 in0.0 mm 0.00 in0.0 mm
04:25 PM 67.7°F19.8°C 53.3°F11.8°C 60% 6.9 mph WNW11.1 kmh WNW 9.2 mph14.8 kmh 31.83 in1077.9 mb - 0.00 in0.0 mm 0.00 in0.0 mm
04:30 PM 67.5°F19.7°C 54.0°F12.2°C 62% 5.8 mph NW9.3 kmh NW 9.2 mph14.8 kmh 31.83 in1077.9 mb - 0.00 in0.0 mm 0.00 in0.0 mm
04:35 PM 67.8°F19.9°C 53.8°F12.1°C 61% 8.1 mph WNW13.0 kmh WNW 8.1 mph13.0 kmh 31.83 in1077.9 mb - 0.00 in0.0 mm 0.00 in0.0 mm
04:40 PM 69.5°F20.8°C 54.1°F12.3°C 58% 5.8 mph NW9.3 kmh NW 16.1 mph25.9 kmh 31.83 in1077.9 mb - 0.00 in0.0 mm 0.00 in0.0 mm
04:45 PM 69.4°F20.8°C 53.5°F11.9°C 57% 6.9 mph WNW11.1 kmh WNW 8.1 mph13.0 kmh 31.83 in1077.9 mb - 0.00 in0.0 mm 0.00 in0.0 mm
04:50 PM 68.7°F20.4°C 53.3°F11.8°C 58% 6.9 mph NNW11.1 kmh NNW 8.1 mph13.0 kmh 31.83 in1077.9 mb - 0.00 in0.0 mm 0.00 in0.0 mm
04:55 PM 68.7°F20.4°C 54.3°F12.4°C 60% 4.6 mph N7.4 kmh N 5.8 mph9.3 kmh 31.83 in1077.9 mb - 0.00 in0.0 mm 0.00 in0.0 mm
05:00 PM 68.0°F20.0°C 53.2°F11.8°C 59% 6.9 mph NW11.1 kmh NW 5.8 mph9.3 kmh 31.83 in1077.9 mb - 0.00 in0.0 mm 0.00 in0.0 mm
05:10 PM 69.8°F21.0°C 53.9°F12.2°C 57% 4.6 mph NW7.4 kmh NW 5.8 mph9.3 kmh 31.83 in1077.9 mb - 0.00 in0.0 mm 0.00 in0.0 mm
05:15 PM 68.9°F20.5°C 53.1°F11.7°C 57% 5.8 mph NW9.3 kmh NW 4.6 mph7.4 kmh 31.83 in1077.9 mb - 0.00 in0.0 mm 0.00 in0.0 mm
05:20 PM 68.7°F20.4°C 53.3°F11.8°C 58% 4.6 mph NW7.4 kmh NW 6.9 mph11.1 kmh 31.83 in1077.9 mb - 0.00 in0.0 mm 0.00 in0.0 mm
05:25 PM 68.2°F20.1°C 52.8°F11.6°C 58% 4.6 mph W7.4 kmh W 5.8 mph9.3 kmh 31.83 in1077.9 mb - 0.00 in0.0 mm 0.00 in0.0 mm
05:30 PM 68.2°F20.1°C 53.3°F11.8°C 59% 5.8 mph NNW9.3 kmh NNW 9.2 mph14.8 kmh 31.83 in1077.9 mb - 0.00 in0.0 mm 0.00 in0.0 mm
05:35 PM 67.8°F19.9°C 53.4°F11.9°C 60% 5.8 mph W9.3 kmh W 6.9 mph11.1 kmh 31.83 in1077.9 mb - 0.00 in0.0 mm 0.00 in0.0 mm
05:40 PM 67.7°F19.8°C 52.8°F11.6°C 59% 3.5 mph NNW5.6 kmh NNW 4.6 mph7.4 kmh 31.83 in1077.9 mb - 0.00 in0.0 mm 0.00 in0.0 mm
05:45 PM 67.7°F19.8°C 53.7°F12.1°C 61% 2.3 mph NW3.7 kmh NW 3.5 mph5.6 kmh 31.83 in1077.9 mb - 0.00 in0.0 mm 0.00 in0.0 mm
05:50 PM 67.7°F19.8°C 53.3°F11.8°C 60% 3.5 mph N5.6 kmh N 4.6 mph7.4 kmh 31.83 in1077.9 mb - 0.00 in0.0 mm 0.00 in0.0 mm
05:55 PM 67.7°F19.8°C 53.3°F11.8°C 60% 3.5 mph W5.6 kmh W 4.6 mph7.4 kmh 31.83 in1077.9 mb - 0.00 in0.0 mm 0.00 in0.0 mm
06:00 PM 65.7°F18.7°C 58.3°F14.6°C 77% 5.8 mph SW9.3 kmh SW 5.8 mph9.3 kmh 31.83 in1077.9 mb - 0.00 in0.0 mm 0.00 in0.0 mm
06:10 PM 63.9°F17.7°C 59.3°F15.2°C 85% 3.5 mph SW5.6 kmh SW 4.6 mph7.4 kmh 31.83 in1077.9 mb - 0.00 in0.0 mm 0.00 in0.0 mm
06:15 PM 63.3°F17.4°C 59.1°F15.1°C 86% 4.6 mph SW7.4 kmh SW 5.8 mph9.3 kmh 31.83 in1077.9 mb - 0.00 in0.0 mm 0.00 in0.0 mm
06:20 PM 62.7°F17.1°C 58.8°F14.9°C 87% 2.3 mph S3.7 kmh S 2.3 mph3.7 kmh 31.83 in1077.9 mb - 0.00 in0.0 mm 0.00 in0.0 mm
06:25 PM 62.4°F16.9°C 58.5°F14.7°C 87% 2.3 mph WSW3.7 kmh WSW 3.5 mph5.6 kmh 31.83 in1077.9 mb - 0.00 in0.0 mm 0.00 in0.0 mm
06:30 PM 62.4°F16.9°C 58.8°F14.9°C 88% 2.3 mph SW3.7 kmh SW 2.3 mph3.7 kmh 31.83 in1077.9 mb - 0.00 in0.0 mm 0.00 in0.0 mm
06:35 PM 62.1°F16.7°C 58.5°F14.7°C 88% 5.8 mph SW9.3 kmh SW 6.9 mph11.1 kmh 31.83 in1077.9 mb - 0.00 in0.0 mm 0.00 in0.0 mm
06:40 PM 61.5°F16.4°C 58.2°F14.6°C 89% 6.9 mph SSW11.1 kmh SSW 9.2 mph14.8 kmh 31.83 in1077.9 mb - 0.00 in0.0 mm 0.00 in0.0 mm
06:45 PM 61.4°F16.3°C 58.1°F14.5°C 89% 8.1 mph SW13.0 kmh SW 8.1 mph13.0 kmh 31.83 in1077.9 mb - 0.00 in0.0 mm 0.00 in0.0 mm
06:50 PM 61.2°F16.2°C 57.9°F14.4°C 89% 6.9 mph SW11.1 kmh SW 8.1 mph13.0 kmh 31.83 in1077.9 mb - 0.00 in0.0 mm 0.00 in0.0 mm
06:55 PM 61.4°F16.3°C 58.1°F14.5°C 89% 8.1 mph SW13.0 kmh SW 9.2 mph14.8 kmh 31.83 in1077.9 mb - 0.00 in0.0 mm 0.00 in0.0 mm
07:00 PM 61.4°F16.3°C 58.1°F14.5°C 89% 6.9 mph SW11.1 kmh SW 9.2 mph14.8 kmh 31.83 in1077.9 mb - 0.00 in0.0 mm 0.00 in0.0 mm
08:25 PM 59.2°F15.1°C 57.5°F14.2°C 94% 4.6 mph SW7.4 kmh SW 5.8 mph9.3 kmh 31.83 in1077.9 mb - 0.00 in0.0 mm 0.00 in0.0 mm
08:30 PM 59.2°F15.1°C 57.5°F14.2°C 94% 3.5 mph SW5.6 kmh SW 4.6 mph7.4 kmh 31.83 in1077.9 mb - 0.00 in0.0 mm 0.00 in0.0 mm
08:35 PM 59.2°F15.1°C 57.5°F14.2°C 94% 3.5 mph W5.6 kmh W 5.8 mph9.3 kmh 31.83 in1077.9 mb - 0.00 in0.0 mm 0.00 in0.0 mm
08:40 PM 59.2°F15.1°C 57.5°F14.2°C 94% 4.6 mph SSW7.4 kmh SSW 4.6 mph7.4 kmh 31.83 in1077.9 mb - 0.00 in0.0 mm 0.00 in0.0 mm
08:45 PM 59.2°F15.1°C 57.5°F14.2°C 94% 3.5 mph SW5.6 kmh SW 8.1 mph13.0 kmh 31.83 in1077.9 mb - 0.00 in0.0 mm 0.00 in0.0 mm
08:50 PM 59.1°F15.1°C 57.7°F14.3°C 95% 4.6 mph SW7.4 kmh SW 5.8 mph9.3 kmh 31.83 in1077.9 mb - 0.00 in0.0 mm 0.00 in0.0 mm
08:55 PM 58.8°F14.9°C 57.4°F14.1°C 95% 4.6 mph WSW7.4 kmh WSW 5.8 mph9.3 kmh 31.83 in1077.9 mb - 0.00 in0.0 mm 0.00 in0.0 mm
09:00 PM 58.8°F14.9°C 57.6°F14.2°C 96% 2.3 mph SW3.7 kmh SW 5.8 mph9.3 kmh 31.83 in1077.9 mb - 0.00 in0.0 mm 0.00 in0.0 mm
09:10 PM 58.7°F14.8°C 57.8°F14.3°C 97% 2.3 mph SW3.7 kmh SW 4.6 mph7.4 kmh 31.83 in1077.9 mb - 0.00 in0.0 mm 0.00 in0.0 mm
09:15 PM 58.7°F14.8°C 57.8°F14.3°C 97% 3.5 mph SW5.6 kmh SW 4.6 mph7.4 kmh 31.83 in1077.9 mb - 0.00 in0.0 mm 0.00 in0.0 mm
09:20 PM 58.7°F14.8°C 57.8°F14.3°C 97% 2.3 mph SSW3.7 kmh SSW 3.5 mph5.6 kmh 31.83 in1077.9 mb - 0.00 in0.0 mm 0.00 in0.0 mm
09:25 PM 58.7°F14.8°C 57.8°F14.3°C 97% 3.5 mph WSW5.6 kmh WSW 5.8 mph9.3 kmh 31.83 in1077.9 mb - 0.00 in0.0 mm 0.00 in0.0 mm
09:30 PM 58.8°F14.9°C 57.9°F14.4°C 97% 3.5 mph WSW5.6 kmh WSW 5.8 mph9.3 kmh 31.83 in1077.9 mb - 0.00 in0.0 mm 0.00 in0.0 mm
09:35 PM 59.0°F15.0°C 58.2°F14.6°C 97% 5.8 mph W9.3 kmh W 6.9 mph11.1 kmh 31.83 in1077.9 mb - 0.00 in0.0 mm 0.00 in0.0 mm
09:40 PM 59.4°F15.2°C 58.5°F14.7°C 97% 4.6 mph SW7.4 kmh SW 6.9 mph11.1 kmh 31.83 in1077.9 mb - 0.00 in0.0 mm 0.00 in0.0 mm
09:45 PM 59.6°F15.3°C 58.7°F14.8°C 97% 3.5 mph SW5.6 kmh SW 5.8 mph9.3 kmh 31.83 in1077.9 mb - 0.00 in0.0 mm 0.00 in0.0 mm
09:50 PM 59.7°F15.4°C 58.5°F14.7°C 96% 3.5 mph SW5.6 kmh SW 4.6 mph7.4 kmh 31.83 in1077.9 mb - 0.00 in0.0 mm 0.00 in0.0 mm
09:55 PM 59.7°F15.4°C 58.5°F14.7°C 96% 3.5 mph SW5.6 kmh SW 4.6 mph7.4 kmh 31.83 in1077.9 mb - 0.00 in0.0 mm 0.00 in0.0 mm
10:00 PM 59.6°F15.3°C 58.5°F14.7°C 96% 3.5 mph WSW5.6 kmh WSW 4.6 mph7.4 kmh 31.83 in1077.9 mb - 0.00 in0.0 mm 0.00 in0.0 mm
10:10 PM 59.2°F15.1°C 58.0°F14.4°C 96% 4.6 mph NW7.4 kmh NW 5.8 mph9.3 kmh 31.83 in1077.9 mb - 0.00 in0.0 mm 0.00 in0.0 mm
10:15 PM 59.3°F15.2°C 58.2°F14.6°C 96% 3.5 mph WSW5.6 kmh WSW 4.6 mph7.4 kmh 31.83 in1077.9 mb - 0.00 in0.0 mm 0.00 in0.0 mm
10:20 PM 59.4°F15.2°C 58.2°F14.6°C 96% 3.5 mph S5.6 kmh S 5.8 mph9.3 kmh 31.83 in1077.9 mb - 0.00 in0.0 mm 0.00 in0.0 mm
10:25 PM 59.4°F15.2°C 58.2°F14.6°C 96% 3.5 mph SW5.6 kmh SW 8.1 mph13.0 kmh 31.83 in1077.9 mb - 0.00 in0.0 mm 0.00 in0.0 mm
10:30 PM 59.7°F15.4°C 58.5°F14.7°C 96% 4.6 mph SSW7.4 kmh SSW 6.9 mph11.1 kmh 31.83 in1077.9 mb - 0.00 in0.0 mm 0.00 in0.0 mm
10:35 PM 59.6°F15.3°C 58.4°F14.7°C 96% 2.3 mph WNW3.7 kmh WNW 5.8 mph9.3 kmh 31.83 in1077.9 mb - 0.00 in0.0 mm 0.00 in0.0 mm
10:40 PM 59.4°F15.2°C 58.2°F14.6°C 96% 2.3 mph W3.7 kmh W 2.3 mph3.7 kmh 31.83 in1077.9 mb - 0.00 in0.0 mm 0.00 in0.0 mm
10:45 PM 59.2°F15.1°C 58.0°F14.4°C 96% 2.3 mph W3.7 kmh W 1.2 mph1.9 kmh 31.83 in1077.9 mb - 0.00 in0.0 mm 0.00 in0.0 mm
10:50 PM 58.8°F14.9°C 57.7°F14.3°C 96% 2.3 mph NNE3.7 kmh NNE 3.5 mph5.6 kmh 31.83 in1077.9 mb - 0.00 in0.0 mm 0.00 in0.0 mm
10:55 PM 58.8°F14.9°C 57.4°F14.1°C 95% 3.5 mph NNE5.6 kmh NNE 4.6 mph7.4 kmh 31.83 in1077.9 mb - 0.00 in0.0 mm 0.00 in0.0 mm
11:00 PM 59.1°F15.1°C 57.4°F14.1°C 94% 2.3 mph NE3.7 kmh NE 4.6 mph7.4 kmh 31.83 in1077.9 mb - 0.00 in0.0 mm 0.00 in0.0 mm
11:10 PM 59.4°F15.2°C 56.4°F13.6°C 90% 4.6 mph W7.4 kmh W 6.9 mph11.1 kmh 31.83 in1077.9 mb - 0.00 in0.0 mm 0.00 in0.0 mm
11:15 PM 59.7°F15.4°C 56.4°F13.6°C 89% 4.6 mph WNW7.4 kmh WNW 6.9 mph11.1 kmh 31.83 in1077.9 mb - 0.00 in0.0 mm 0.00 in0.0 mm
11:20 PM 60.3°F15.7°C 56.1°F13.4°C 86% 3.5 mph WSW5.6 kmh WSW 4.6 mph7.4 kmh 31.83 in1077.9 mb - 0.00 in0.0 mm 0.00 in0.0 mm
11:25 PM 60.6°F15.9°C 56.0°F13.3°C 85% 4.6 mph W7.4 kmh W 8.1 mph13.0 kmh 31.83 in1077.9 mb - 0.00 in0.0 mm 0.00 in0.0 mm
11:30 PM 61.2°F16.2°C 56.0°F13.3°C 83% 3.5 mph NNE5.6 kmh NNE 4.6 mph7.4 kmh 31.83 in1077.9 mb - 0.00 in0.0 mm 0.00 in0.0 mm
11:35 PM 61.2°F16.2°C 56.0°F13.3°C 83% 3.5 mph E5.6 kmh E 3.5 mph5.6 kmh 31.83 in1077.9 mb - 0.00 in0.0 mm 0.00 in0.0 mm
11:40 PM 61.2°F16.2°C 56.0°F13.3°C 83% 4.6 mph NW7.4 kmh NW 5.8 mph9.3 kmh 31.83 in1077.9 mb - 0.00 in0.0 mm 0.00 in0.0 mm
11:45 PM 61.6°F16.4°C 55.7°F13.2°C 81% 5.8 mph WNW9.3 kmh WNW 8.1 mph13.0 kmh 31.83 in1077.9 mb - 0.00 in0.0 mm 0.00 in0.0 mm
11:50 PM 61.9°F16.6°C 55.6°F13.1°C 80% 8.1 mph N13.0 kmh N 10.4 mph16.7 kmh 31.83 in1077.9 mb - 0.00 in0.0 mm 0.00 in0.0 mm
11:55 PM 61.4°F16.3°C 55.6°F13.1°C 81% 6.9 mph NNW11.1 kmh NNW 10.4 mph16.7 kmh 31.83 in1077.9 mb - 0.00 in0.0 mm 0.00 in0.0 mm